Time;durP1;ratioP1;P1;durP2;ratioP2;P2;SDS_P1;SDS_P2;PMS_P1;PMS_P2;Temp;Humidity;BMP_temperature;BMP_pressure;BME280_temperature;BME280_humidity;BME280_pressure;Samples;Min_cycle;Max_cycle;Signal;HPM_P1;HPM_P2
2021/03/17 00:00:39;;;;;;;18.0;16.1;;;;;;;4.8;79.1;102300.0;;;;
2021/03/17 00:06:37;;;;;;;12.6;11.4;;;;;;;5.0;79.5;102310.0;;;;
2021/03/17 00:08:37;;;;;;;12.6;11.4;;;;;;;4.9;79.2;102310.0;;;;
2021/03/17 00:12:37;;;;;;;12.6;11.4;;;;;;;4.8;79.3;102320.0;;;;
2021/03/17 00:28:37;;;;;;;11.7;10.6;;;;;;;4.7;79.6;102320.0;;;;
2021/03/17 00:30:39;;;;;;;11.7;10.6;;;;;;;4.8;78.7;102310.0;;;;
2021/03/17 00:32:38;;;;;;;11.7;10.6;;;;;;;4.9;78.5;102310.0;;;;
2021/03/17 00:36:37;;;;;;;11.7;10.6;;;;;;;4.8;79.4;102310.0;;;;
2021/03/17 00:44:37;;;;;;;11.7;10.6;;;;;;;4.7;79.8;102340.0;;;;
2021/03/17 00:48:37;;;;;;;10.0;9.0;;;;;;;4.8;79.4;102340.0;;;;
2021/03/17 00:50:37;;;;;;;10.0;9.0;;;;;;;4.7;79.9;102340.0;;;;
2021/03/17 00:54:37;;;;;;;10.0;9.0;;;;;;;4.8;79.8;102340.0;;;;
2021/03/17 01:00:37;;;;;;;10.0;9.0;;;;;;;4.7;80.6;102340.0;;;;
2021/03/17 01:04:38;;;;;;;10.2;9.3;;;;;;;4.8;79.9;102350.0;;;;
2021/03/17 01:08:37;;;;;;;10.2;9.3;;;;;;;4.7;80.1;102340.0;;;;
2021/03/17 01:10:42;;;;;;;10.2;9.3;;;;;;;4.8;78.9;102340.0;;;;
2021/03/17 01:20:39;;;;;;;10.2;9.3;;;;;;;4.7;80.0;102340.0;;;;
2021/03/17 01:30:40;;;;;;;10.1;9.2;;;;;;;4.6;79.3;102340.0;;;;
2021/03/17 01:36:37;;;;;;;10.1;9.2;;;;;;;4.7;79.2;102340.0;;;;
2021/03/17 01:38:37;;;;;;;10.1;9.2;;;;;;;4.6;79.6;102350.0;;;;
2021/03/17 01:40:39;;;;;;;10.1;9.2;;;;;;;4.5;80.4;102360.0;;;;
2021/03/17 01:42:38;;;;;;;10.1;9.2;;;;;;;4.6;79.4;102360.0;;;;
2021/03/17 01:46:37;;;;;;;9.5;8.7;;;;;;;4.5;80.0;102360.0;;;;
2021/03/17 01:48:37;;;;;;;9.5;8.7;;;;;;;4.7;79.5;102360.0;;;;
2021/03/17 01:50:40;;;;;;;9.5;8.7;;;;;;;4.6;79.5;102360.0;;;;
2021/03/17 01:52:37;;;;;;;9.5;8.7;;;;;;;4.7;79.6;102360.0;;;;
2021/03/17 01:54:37;;;;;;;9.5;8.7;;;;;;;4.6;79.9;102360.0;;;;
2021/03/17 01:56:38;;;;;;;9.5;8.7;;;;;;;4.7;79.1;102370.0;;;;
2021/03/17 01:58:38;;;;;;;9.5;8.7;;;;;;;4.6;79.8;102360.0;;;;
2021/03/17 02:00:39;;;;;;;9.5;8.7;;;;;;;4.7;79.4;102360.0;;;;
2021/03/17 02:02:39;;;;;;;9.5;8.7;;;;;;;4.6;80.2;102370.0;;;;
2021/03/17 02:06:37;;;;;;;10.0;9.1;;;;;;;4.5;80.4;102380.0;;;;
2021/03/17 02:08:41;;;;;;;10.0;9.1;;;;;;;4.7;80.0;102380.0;;;;
2021/03/17 02:10:38;;;;;;;10.0;9.1;;;;;;;4.6;80.2;102390.0;;;;
2021/03/17 02:12:48;;;;;;;10.0;9.1;;;;;;;4.5;80.5;102390.0;;;;
2021/03/17 02:16:40;;;;;;;10.0;9.1;;;;;;;4.6;80.9;102390.0;;;;
2021/03/17 02:18:46;;;;;;;10.0;9.1;;;;;;;4.5;80.8;102390.0;;;;
2021/03/17 02:26:52;;;;;;;10.3;9.4;;;;;;;4.6;80.7;102390.0;;;;
2021/03/17 02:40:41;;;;;;;10.3;9.4;;;;;;;4.7;80.4;102360.0;;;;
2021/03/17 02:44:44;;;;;;;12.4;11.3;;;;;;;4.8;79.8;102360.0;;;;
2021/03/17 02:46:40;;;;;;;12.4;11.3;;;;;;;4.7;80.0;102360.0;;;;
2021/03/17 02:48:43;;;;;;;12.4;11.3;;;;;;;4.6;80.9;102360.0;;;;
2021/03/17 02:54:42;;;;;;;12.4;11.3;;;;;;;4.7;80.8;102350.0;;;;
2021/03/17 02:56:43;;;;;;;12.4;11.3;;;;;;;4.6;81.1;102350.0;;;;
2021/03/17 02:58:43;;;;;;;12.4;11.3;;;;;;;4.7;81.2;102350.0;;;;
2021/03/17 03:00:39;;;;;;;12.4;11.3;;;;;;;4.6;81.1;102350.0;;;;
2021/03/17 03:02:39;;;;;;;12.4;11.3;;;;;;;4.7;80.3;102350.0;;;;
2021/03/17 03:08:41;;;;;;;13.0;11.8;;;;;;;4.6;81.0;102340.0;;;;
2021/03/17 03:12:39;;;;;;;13.0;11.8;;;;;;;4.5;81.1;102340.0;;;;
2021/03/17 03:14:40;;;;;;;13.0;11.8;;;;;;;4.6;81.2;102340.0;;;;
2021/03/17 03:18:39;;;;;;;13.0;11.8;;;;;;;4.5;81.4;102340.0;;;;
2021/03/17 03:20:39;;;;;;;13.0;11.8;;;;;;;4.6;80.8;102340.0;;;;
2021/03/17 03:26:37;;;;;;;10.0;9.1;;;;;;;4.5;81.5;102340.0;;;;
2021/03/17 03:32:39;;;;;;;10.0;9.1;;;;;;;4.6;80.6;102330.0;;;;
2021/03/17 03:34:38;;;;;;;10.0;9.1;;;;;;;4.7;80.9;102330.0;;;;
2021/03/17 03:36:37;;;;;;;10.0;9.1;;;;;;;4.6;81.2;102330.0;;;;
2021/03/17 03:38:38;;;;;;;10.0;9.1;;;;;;;4.7;80.6;102330.0;;;;
2021/03/17 03:44:38;;;;;;;8.9;8.2;;;;;;;4.6;81.2;102330.0;;;;
2021/03/17 03:48:37;;;;;;;8.9;8.2;;;;;;;4.5;80.9;102330.0;;;;
2021/03/17 03:50:41;;;;;;;8.9;8.2;;;;;;;4.6;81.2;102330.0;;;;
2021/03/17 03:56:41;;;;;;;8.9;8.2;;;;;;;4.7;80.3;102330.0;;;;
2021/03/17 03:58:44;;;;;;;8.9;8.2;;;;;;;4.5;81.3;102340.0;;;;
2021/03/17 04:00:40;;;;;;;8.9;8.2;;;;;;;4.6;80.8;102340.0;;;;
2021/03/17 04:04:42;;;;;;;10.2;9.3;;;;;;;4.7;80.6;102350.0;;;;
2021/03/17 04:06:39;;;;;;;10.2;9.3;;;;;;;4.6;80.9;102350.0;;;;
2021/03/17 04:10:38;;;;;;;10.2;9.3;;;;;;;4.7;80.7;102360.0;;;;
2021/03/17 04:12:39;;;;;;;10.2;9.3;;;;;;;4.5;81.4;102360.0;;;;
2021/03/17 04:18:41;;;;;;;10.2;9.3;;;;;;;4.6;81.1;102360.0;;;;
2021/03/17 04:20:43;;;;;;;10.2;9.3;;;;;;;4.5;81.6;102370.0;;;;
2021/03/17 04:26:38;;;;;;;11.5;10.4;;;;;;;4.7;81.6;102360.0;;;;
2021/03/17 04:28:40;;;;;;;11.5;10.4;;;;;;;4.6;81.3;102360.0;;;;
2021/03/17 04:34:39;;;;;;;11.5;10.4;;;;;;;4.5;81.2;102360.0;;;;
2021/03/17 04:36:38;;;;;;;11.5;10.4;;;;;;;4.7;81.5;102360.0;;;;
2021/03/17 04:42:39;;;;;;;11.5;10.4;;;;;;;4.6;81.2;102370.0;;;;
2021/03/17 04:48:40;;;;;;;12.1;11.0;;;;;;;4.8;81.1;102370.0;;;;
2021/03/17 04:52:39;;;;;;;12.1;11.0;;;;;;;4.6;81.1;102360.0;;;;
2021/03/17 04:58:39;;;;;;;12.1;11.0;;;;;;;4.5;81.6;102380.0;;;;
2021/03/17 05:00:41;;;;;;;12.1;11.0;;;;;;;4.6;81.6;102380.0;;;;
2021/03/17 05:06:41;;;;;;;13.8;12.5;;;;;;;4.5;81.8;102390.0;;;;
2021/03/17 05:14:38;;;;;;;13.8;12.5;;;;;;;4.6;81.8;102390.0;;;;
2021/03/17 05:16:39;;;;;;;13.8;12.5;;;;;;;4.5;81.8;102390.0;;;;
2021/03/17 05:18:38;;;;;;;13.8;12.5;;;;;;;4.6;82.1;102390.0;;;;
2021/03/17 05:32:40;;;;;;;17.8;16.1;;;;;;;4.7;81.4;102380.0;;;;
2021/03/17 05:36:37;;;;;;;17.8;16.1;;;;;;;4.8;81.6;102380.0;;;;
2021/03/17 05:38:37;;;;;;;17.8;16.1;;;;;;;4.7;81.6;102380.0;;;;
2021/03/17 05:40:38;;;;;;;17.8;16.1;;;;;;;4.6;82.0;102370.0;;;;
2021/03/17 05:42:38;;;;;;;17.8;16.1;;;;;;;4.7;81.6;102370.0;;;;
2021/03/17 05:44:38;;;;;;;20.2;18.2;;;;;;;4.8;81.9;102370.0;;;;
2021/03/17 05:46:39;;;;;;;20.2;18.2;;;;;;;4.7;82.0;102370.0;;;;
2021/03/17 05:48:39;;;;;;;20.2;18.2;;;;;;;4.9;81.7;102370.0;;;;
2021/03/17 05:50:38;;;;;;;20.2;18.2;;;;;;;4.7;81.3;102380.0;;;;
2021/03/17 05:58:39;;;;;;;20.2;18.2;;;;;;;4.8;81.2;102380.0;;;;
2021/03/17 06:04:39;;;;;;;17.6;15.8;;;;;;;4.9;81.6;102380.0;;;;
2021/03/17 06:06:39;;;;;;;17.6;15.8;;;;;;;4.8;81.6;102370.0;;;;
2021/03/17 06:14:40;;;;;;;17.6;15.8;;;;;;;4.9;81.0;102370.0;;;;
2021/03/17 06:24:39;;;;;;;14.8;13.4;;;;;;;5.1;81.5;102360.0;;;;
2021/03/17 06:26:38;;;;;;;14.8;13.4;;;;;;;5.0;81.5;102360.0;;;;
2021/03/17 06:32:38;;;;;;;14.8;13.4;;;;;;;5.2;81.7;102370.0;;;;
2021/03/17 06:34:45;;;;;;;14.8;13.4;;;;;;;5.1;82.0;102380.0;;;;
2021/03/17 06:36:48;;;;;;;14.8;13.4;;;;;;;5.2;82.1;102380.0;;;;
2021/03/17 06:38:38;;;;;;;14.8;13.4;;;;;;;5.1;82.6;102380.0;;;;
2021/03/17 06:44:38;;;;;;;10.4;9.4;;;;;;;5.2;81.4;102370.0;;;;
2021/03/17 06:50:37;;;;;;;10.4;9.4;;;;;;;5.1;81.7;102370.0;;;;
2021/03/17 06:52:38;;;;;;;10.4;9.4;;;;;;;5.3;81.5;102370.0;;;;
2021/03/17 06:54:37;;;;;;;10.4;9.4;;;;;;;5.2;81.4;102380.0;;;;
2021/03/17 06:58:38;;;;;;;10.4;9.4;;;;;;;5.1;81.2;102370.0;;;;
2021/03/17 07:00:38;;;;;;;10.4;9.4;;;;;;;5.2;82.2;102380.0;;;;
2021/03/17 07:02:38;;;;;;;10.4;9.4;;;;;;;5.1;82.0;102370.0;;;;
2021/03/17 07:12:37;;;;;;;7.8;7.1;;;;;;;4.9;81.8;102380.0;;;;
2021/03/17 07:14:40;;;;;;;7.8;7.1;;;;;;;5.0;82.2;102380.0;;;;
2021/03/17 07:18:38;;;;;;;7.8;7.1;;;;;;;5.1;82.0;102380.0;;;;
2021/03/17 07:20:40;;;;;;;7.8;7.1;;;;;;;5.2;81.6;102390.0;;;;
2021/03/17 07:22:37;;;;;;;7.8;7.1;;;;;;;5.0;81.7;102390.0;;;;
2021/03/17 07:24:39;;;;;;;5.5;5.1;;;;;;;5.2;81.8;102390.0;;;;
2021/03/17 07:26:39;;;;;;;5.5;5.1;;;;;;;5.1;81.3;102400.0;;;;
2021/03/17 07:30:37;;;;;;;5.5;5.1;;;;;;;4.9;82.3;102400.0;;;;
2021/03/17 07:36:41;;;;;;;5.5;5.1;;;;;;;4.8;82.2;102409.99999999999;;;;
2021/03/17 07:38:38;;;;;;;5.5;5.1;;;;;;;4.9;82.2;102420.0;;;;
2021/03/17 07:46:40;;;;;;;5.0;4.6;;;;;;;5.0;82.1;102430.0;;;;
2021/03/17 07:48:38;;;;;;;5.0;4.6;;;;;;;5.1;81.6;102430.0;;;;
2021/03/17 07:52:39;;;;;;;5.0;4.6;;;;;;;5.0;82.4;102430.0;;;;
2021/03/17 07:58:38;;;;;;;5.0;4.6;;;;;;;4.9;82.1;102430.0;;;;
2021/03/17 08:00:38;;;;;;;5.0;4.6;;;;;;;4.8;82.9;102440.00000000001;;;;
2021/03/17 08:02:38;;;;;;;4.7;4.3;;;;;;;4.9;83.1;102440.00000000001;;;;
2021/03/17 08:06:37;;;;;;;4.7;4.3;;;;;;;4.8;82.4;102430.0;;;;
2021/03/17 08:08:40;;;;;;;4.7;4.3;;;;;;;4.9;82.4;102420.0;;;;
2021/03/17 08:10:40;;;;;;;4.7;4.3;;;;;;;5.0;82.0;102420.0;;;;
2021/03/17 08:12:39;;;;;;;4.7;4.3;;;;;;;5.1;81.7;102430.0;;;;
2021/03/17 08:14:41;;;;;;;4.7;4.3;;;;;;;5.2;81.7;102430.0;;;;
2021/03/17 08:18:39;;;;;;;4.7;4.3;;;;;;;5.3;82.3;102430.0;;;;
2021/03/17 08:22:38;;;;;;;4.4;4.0;;;;;;;5.4;82.1;102440.00000000001;;;;
2021/03/17 08:32:52;;;;;;;4.4;4.0;;;;;;;5.5;81.1;102430.0;;;;
2021/03/17 08:36:41;;;;;;;4.4;4.0;;;;;;;5.7;81.3;102440.00000000001;;;;
2021/03/17 08:40:48;;;;;;;4.4;4.0;;;;;;;5.5;81.3;102459.99999999999;;;;
2021/03/17 08:42:37;;;;;;;3.9;3.6;;;;;;;5.7;80.7;102459.99999999999;;;;
2021/03/17 08:44:47;;;;;;;3.9;3.6;;;;;;;5.5;80.3;102470.0;;;;
2021/03/17 08:46:37;;;;;;;3.9;3.6;;;;;;;5.2;80.8;102470.0;;;;
2021/03/17 08:48:57;;;;;;;3.9;3.6;;;;;;;5.1;81.2;102470.0;;;;
2021/03/17 08:52:38;;;;;;;3.9;3.6;;;;;;;4.9;81.4;102480.0;;;;
2021/03/17 08:54:45;;;;;;;3.9;3.6;;;;;;;5.2;81.3;102480.0;;;;
2021/03/17 08:58:37;;;;;;;3.9;3.6;;;;;;;5.3;80.8;102480.0;;;;
2021/03/17 09:00:53;;;;;;;3.9;3.6;;;;;;;5.2;80.9;102480.0;;;;
2021/03/17 09:02:50;;;;;;;3.4;2.7;;;;;;;5.4;80.3;102470.0;;;;
2021/03/17 09:04:46;;;;;;;3.4;2.7;;;;;;;5.3;80.6;102470.0;;;;
2021/03/17 09:06:51;;;;;;;3.4;2.7;;;;;;;5.2;80.5;102470.0;;;;
2021/03/17 09:08:49;;;;;;;3.4;2.7;;;;;;;5.3;80.6;102470.0;;;;
2021/03/17 09:10:40;;;;;;;3.4;2.7;;;;;;;5.4;80.2;102470.0;;;;
2021/03/17 09:12:46;;;;;;;3.4;2.7;;;;;;;5.5;80.6;102470.0;;;;
2021/03/17 09:14:38;;;;;;;3.4;2.7;;;;;;;5.6;80.0;102480.0;;;;
2021/03/17 09:16:57;;;;;;;3.4;2.7;;;;;;;5.7;80.3;102470.0;;;;
2021/03/17 09:20:41;;;;;;;3.4;2.7;;;;;;;5.6;80.3;102470.0;;;;
2021/03/17 09:22:40;;;;;;;3.3;2.9;;;;;;;5.8;80.3;102470.0;;;;
2021/03/17 09:24:37;;;;;;;3.3;2.9;;;;;;;5.9;80.8;102480.0;;;;
2021/03/17 09:26:37;;;;;;;3.3;2.9;;;;;;;6.1;80.8;102480.0;;;;
2021/03/17 09:30:41;;;;;;;3.3;2.9;;;;;;;5.9;79.0;102470.0;;;;
2021/03/17 09:34:37;;;;;;;3.3;2.9;;;;;;;5.8;78.7;102459.99999999999;;;;
2021/03/17 09:38:40;;;;;;;3.3;2.9;;;;;;;5.9;78.8;102480.0;;;;
2021/03/17 09:40:45;;;;;;;3.3;2.9;;;;;;;6.0;78.7;102470.0;;;;
2021/03/17 09:42:38;;;;;;;3.5;2.7;;;;;;;6.1;78.5;102470.0;;;;
2021/03/17 09:44:37;;;;;;;3.5;2.7;;;;;;;6.0;78.8;102470.0;;;;
2021/03/17 09:46:41;;;;;;;3.5;2.7;;;;;;;6.2;79.3;102470.0;;;;
2021/03/17 09:48:38;;;;;;;3.5;2.7;;;;;;;6.3;78.9;102470.0;;;;
2021/03/17 09:50:38;;;;;;;3.5;2.7;;;;;;;6.4;78.7;102470.0;;;;
2021/03/17 09:52:41;;;;;;;3.5;2.7;;;;;;;6.5;79.2;102459.99999999999;;;;
2021/03/17 09:54:37;;;;;;;3.5;2.7;;;;;;;6.4;78.8;102459.99999999999;;;;
2021/03/17 09:56:40;;;;;;;3.5;2.7;;;;;;;6.5;78.4;102459.99999999999;;;;
2021/03/17 09:58:38;;;;;;;3.5;2.7;;;;;;;6.4;77.8;102459.99999999999;;;;
2021/03/17 10:00:38;;;;;;;3.5;2.7;;;;;;;6.3;77.8;102459.99999999999;;;;
2021/03/17 10:02:45;;;;;;;3.3;2.5;;;;;;;6.6;78.1;102459.99999999999;;;;
2021/03/17 10:04:42;;;;;;;3.3;2.5;;;;;;;6.3;77.1;102459.99999999999;;;;
2021/03/17 10:06:38;;;;;;;3.3;2.5;;;;;;;6.2;78.4;102459.99999999999;;;;
2021/03/17 10:08:38;;;;;;;3.3;2.5;;;;;;;6.4;78.1;102459.99999999999;;;;
2021/03/17 10:10:38;;;;;;;3.3;2.5;;;;;;;6.5;78.3;102459.99999999999;;;;
2021/03/17 10:12:37;;;;;;;3.3;2.5;;;;;;;6.7;77.5;102459.99999999999;;;;
2021/03/17 10:16:38;;;;;;;3.3;2.5;;;;;;;6.6;78.0;102450.0;;;;
2021/03/17 10:22:38;;;;;;;4.9;3.0;;;;;;;6.5;77.4;102470.0;;;;
2021/03/17 10:24:41;;;;;;;4.9;3.0;;;;;;;5.9;76.8;102470.0;;;;
2021/03/17 10:26:39;;;;;;;4.9;3.0;;;;;;;5.6;78.1;102470.0;;;;
2021/03/17 10:28:37;;;;;;;4.9;3.0;;;;;;;5.7;78.4;102470.0;;;;
2021/03/17 10:30:39;;;;;;;4.9;3.0;;;;;;;5.8;78.9;102459.99999999999;;;;
2021/03/17 10:32:40;;;;;;;4.9;3.0;;;;;;;6.0;79.2;102459.99999999999;;;;
2021/03/17 10:36:39;;;;;;;4.9;3.0;;;;;;;6.1;78.5;102459.99999999999;;;;
2021/03/17 10:38:37;;;;;;;4.9;3.0;;;;;;;6.0;78.1;102450.0;;;;
2021/03/17 10:40:39;;;;;;;4.9;3.0;;;;;;;5.8;75.7;102440.00000000001;;;;
2021/03/17 10:42:42;;;;;;;4.4;2.6;;;;;;;6.0;77.2;102450.0;;;;
2021/03/17 10:44:37;;;;;;;4.4;2.6;;;;;;;6.1;77.2;102450.0;;;;
2021/03/17 10:46:55;;;;;;;4.4;2.6;;;;;;;6.2;76.5;102459.99999999999;;;;
2021/03/17 10:52:40;;;;;;;4.4;2.6;;;;;;;6.3;77.3;102450.0;;;;
2021/03/17 10:54:39;;;;;;;4.4;2.6;;;;;;;6.4;76.2;102450.0;;;;
2021/03/17 10:56:37;;;;;;;4.4;2.6;;;;;;;6.5;76.1;102450.0;;;;
2021/03/17 10:58:39;;;;;;;4.4;2.6;;;;;;;6.4;75.2;102450.0;;;;
2021/03/17 11:02:38;;;;;;;4.4;2.6;;;;;;;6.5;76.6;102450.0;;;;
2021/03/17 11:04:37;;;;;;;4.4;2.6;;;;;;;6.6;75.0;102459.99999999999;;;;
2021/03/17 11:06:37;;;;;;;4.4;2.6;;;;;;;6.5;74.5;102440.00000000001;;;;
2021/03/17 11:10:50;;;;;;;4.4;2.6;;;;;;;6.4;75.0;102450.0;;;;
2021/03/17 11:14:38;;;;;;;4.4;2.6;;;;;;;6.5;73.6;102450.0;;;;
2021/03/17 11:18:45;;;;;;;4.4;2.6;;;;;;;6.4;75.7;102459.99999999999;;;;
2021/03/17 11:20:39;;;;;;;4.4;2.6;;;;;;;6.5;73.8;102470.0;;;;
2021/03/17 11:24:37;;;;;;;3.4;2.9;;;;;;;6.6;75.7;102470.0;;;;
2021/03/17 11:26:39;;;;;;;3.4;2.9;;;;;;;6.5;73.6;102459.99999999999;;;;
2021/03/17 11:28:39;;;;;;;3.4;2.9;;;;;;;6.6;75.1;102470.0;;;;
2021/03/17 11:30:40;;;;;;;3.4;2.9;;;;;;;6.5;73.8;102470.0;;;;
2021/03/17 11:32:37;;;;;;;3.4;2.9;;;;;;;6.6;73.4;102470.0;;;;
2021/03/17 11:34:38;;;;;;;3.4;2.9;;;;;;;6.5;74.1;102470.0;;;;
2021/03/17 11:36:38;;;;;;;3.4;2.9;;;;;;;6.6;74.5;102459.99999999999;;;;
2021/03/17 11:38:37;;;;;;;3.4;2.9;;;;;;;6.7;74.3;102470.0;;;;
2021/03/17 11:40:39;;;;;;;3.4;2.9;;;;;;;6.8;73.7;102470.0;;;;
2021/03/17 11:42:37;;;;;;;5.8;2.7;;;;;;;6.9;74.9;102480.0;;;;
2021/03/17 11:44:37;;;;;;;5.8;2.7;;;;;;;7.0;73.8;102470.0;;;;
2021/03/17 11:46:37;;;;;;;5.8;2.7;;;;;;;7.1;73.8;102470.0;;;;
2021/03/17 11:52:37;;;;;;;5.8;2.7;;;;;;;7.2;73.7;102459.99999999999;;;;
2021/03/17 11:56:37;;;;;;;5.8;2.7;;;;;;;7.1;72.7;102450.0;;;;
2021/03/17 11:58:38;;;;;;;5.8;2.7;;;;;;;7.2;73.0;102450.0;;;;
2021/03/17 12:00:39;;;;;;;5.8;2.7;;;;;;;7.4;73.8;102450.0;;;;
2021/03/17 12:02:37;;;;;;;6.2;2.5;;;;;;;7.2;71.2;102440.00000000001;;;;
2021/03/17 12:04:38;;;;;;;6.2;2.5;;;;;;;7.4;73.6;102430.0;;;;
2021/03/17 12:06:37;;;;;;;6.2;2.5;;;;;;;7.7;73.0;102440.00000000001;;;;
2021/03/17 12:08:38;;;;;;;6.2;2.5;;;;;;;7.3;71.3;102440.00000000001;;;;
2021/03/17 12:12:38;;;;;;;6.2;2.5;;;;;;;7.6;73.2;102440.00000000001;;;;
2021/03/17 12:14:37;;;;;;;6.2;2.5;;;;;;;7.8;73.3;102440.00000000001;;;;
2021/03/17 12:18:37;;;;;;;6.2;2.5;;;;;;;7.9;72.7;102440.00000000001;;;;
2021/03/17 12:22:38;;;;;;;4.5;2.7;;;;;;;8.0;70.4;102440.00000000001;;;;
2021/03/17 12:24:37;;;;;;;4.5;2.7;;;;;;;8.1;71.5;102440.00000000001;;;;
2021/03/17 12:26:37;;;;;;;4.5;2.7;;;;;;;7.6;71.4;102430.0;;;;
2021/03/17 12:28:37;;;;;;;4.5;2.7;;;;;;;7.7;72.7;102440.00000000001;;;;
2021/03/17 12:34:38;;;;;;;4.5;2.7;;;;;;;7.8;72.5;102440.00000000001;;;;
2021/03/17 12:36:38;;;;;;;4.5;2.7;;;;;;;7.6;72.1;102440.00000000001;;;;
2021/03/17 12:38:37;;;;;;;4.5;2.7;;;;;;;7.4;73.5;102440.00000000001;;;;
2021/03/17 12:40:37;;;;;;;4.5;2.7;;;;;;;7.3;72.9;102440.00000000001;;;;
2021/03/17 12:42:38;;;;;;;6.2;2.7;;;;;;;7.5;72.9;102440.00000000001;;;;
2021/03/17 12:44:38;;;;;;;6.2;2.7;;;;;;;7.6;73.6;102440.00000000001;;;;
2021/03/17 12:46:37;;;;;;;6.2;2.7;;;;;;;7.7;74.6;102440.00000000001;;;;
2021/03/17 12:48:37;;;;;;;6.2;2.7;;;;;;;7.6;73.5;102440.00000000001;;;;
2021/03/17 12:50:38;;;;;;;6.2;2.7;;;;;;;7.7;73.3;102440.00000000001;;;;
2021/03/17 12:56:37;;;;;;;6.2;2.7;;;;;;;7.8;72.8;102440.00000000001;;;;
2021/03/17 12:58:38;;;;;;;6.2;2.7;;;;;;;7.9;74.0;102440.00000000001;;;;
2021/03/17 13:02:37;;;;;;;3.2;2.0;;;;;;;7.8;71.9;102440.00000000001;;;;
2021/03/17 13:04:37;;;;;;;3.2;2.0;;;;;;;7.6;72.2;102440.00000000001;;;;
2021/03/17 13:08:38;;;;;;;3.2;2.0;;;;;;;7.4;73.5;102440.00000000001;;;;
2021/03/17 13:10:38;;;;;;;3.2;2.0;;;;;;;7.5;72.2;102440.00000000001;;;;
2021/03/17 13:12:38;;;;;;;3.2;2.0;;;;;;;7.3;72.6;102440.00000000001;;;;
2021/03/17 13:14:38;;;;;;;3.2;2.0;;;;;;;7.2;71.9;102440.00000000001;;;;
2021/03/17 13:16:39;;;;;;;3.2;2.0;;;;;;;7.5;73.6;102430.0;;;;
2021/03/17 13:18:38;;;;;;;3.2;2.0;;;;;;;7.4;72.2;102430.0;;;;
2021/03/17 13:20:38;;;;;;;3.2;2.0;;;;;;;7.2;73.9;102430.0;;;;
2021/03/17 13:22:38;;;;;;;4.0;2.4;;;;;;;7.3;75.1;102450.0;;;;
2021/03/17 13:24:37;;;;;;;4.0;2.4;;;;;;;7.2;73.5;102450.0;;;;
2021/03/17 13:26:38;;;;;;;4.0;2.4;;;;;;;7.1;74.6;102440.00000000001;;;;
2021/03/17 13:30:38;;;;;;;4.0;2.4;;;;;;;7.3;75.0;102450.0;;;;
2021/03/17 13:32:38;;;;;;;4.0;2.4;;;;;;;7.2;74.3;102440.00000000001;;;;
2021/03/17 13:34:37;;;;;;;4.0;2.4;;;;;;;7.1;74.9;102450.0;;;;
2021/03/17 13:36:38;;;;;;;4.0;2.4;;;;;;;7.3;75.6;102450.0;;;;
2021/03/17 13:38:37;;;;;;;4.0;2.4;;;;;;;7.4;74.4;102440.00000000001;;;;
2021/03/17 13:40:38;;;;;;;4.0;2.4;;;;;;;7.6;74.3;102440.00000000001;;;;
2021/03/17 13:42:38;;;;;;;2.3;2.2;;;;;;;7.7;74.7;102440.00000000001;;;;
2021/03/17 13:46:37;;;;;;;2.3;2.2;;;;;;;7.5;74.2;102430.0;;;;
2021/03/17 13:48:37;;;;;;;2.3;2.2;;;;;;;7.6;74.5;102440.00000000001;;;;
2021/03/17 13:52:38;;;;;;;2.3;2.2;;;;;;;7.7;74.2;102430.0;;;;
2021/03/17 13:56:37;;;;;;;2.3;2.2;;;;;;;7.9;73.7;102430.0;;;;
2021/03/17 13:58:37;;;;;;;2.3;2.2;;;;;;;8.0;73.9;102430.0;;;;
2021/03/17 14:00:37;;;;;;;2.3;2.2;;;;;;;8.1;73.7;102430.0;;;;
2021/03/17 14:12:38;;;;;;;3.6;2.6;;;;;;;8.0;72.6;102440.00000000001;;;;
2021/03/17 14:14:38;;;;;;;3.6;2.6;;;;;;;7.9;73.1;102430.0;;;;
2021/03/17 14:16:38;;;;;;;3.6;2.6;;;;;;;7.8;73.9;102420.0;;;;
2021/03/17 14:18:38;;;;;;;3.6;2.6;;;;;;;7.9;72.7;102430.0;;;;
2021/03/17 14:20:37;;;;;;;3.6;2.6;;;;;;;8.1;73.7;102430.0;;;;
2021/03/17 14:22:38;;;;;;;1.9;1.8;;;;;;;7.9;72.4;102440.00000000001;;;;
2021/03/17 14:24:37;;;;;;;1.9;1.8;;;;;;;8.0;72.5;102440.00000000001;;;;
2021/03/17 14:26:38;;;;;;;1.9;1.8;;;;;;;8.1;72.2;102430.0;;;;
2021/03/17 14:30:38;;;;;;;1.9;1.8;;;;;;;8.2;72.9;102440.00000000001;;;;
2021/03/17 14:32:38;;;;;;;1.9;1.8;;;;;;;8.3;71.4;102440.00000000001;;;;
2021/03/17 14:34:37;;;;;;;1.9;1.8;;;;;;;8.2;71.4;102440.00000000001;;;;
2021/03/17 14:42:38;;;;;;;2.1;1.6;;;;;;;8.0;71.0;102440.00000000001;;;;
2021/03/17 14:44:37;;;;;;;2.1;1.6;;;;;;;8.1;72.7;102440.00000000001;;;;
2021/03/17 14:46:37;;;;;;;2.1;1.6;;;;;;;8.0;71.4;102440.00000000001;;;;
2021/03/17 14:48:37;;;;;;;2.1;1.6;;;;;;;8.1;71.0;102440.00000000001;;;;
2021/03/17 14:50:38;;;;;;;2.1;1.6;;;;;;;8.2;70.8;102450.0;;;;
2021/03/17 14:52:37;;;;;;;2.1;1.6;;;;;;;8.3;71.6;102450.0;;;;
2021/03/17 14:54:38;;;;;;;2.1;1.6;;;;;;;7.9;70.5;102440.00000000001;;;;
2021/03/17 14:56:37;;;;;;;2.1;1.6;;;;;;;8.1;70.7;102440.00000000001;;;;
2021/03/17 14:58:37;;;;;;;2.1;1.6;;;;;;;8.2;70.8;102450.0;;;;
2021/03/17 15:02:38;;;;;;;1.8;1.7;;;;;;;8.1;71.1;102440.00000000001;;;;
2021/03/17 15:08:38;;;;;;;1.8;1.7;;;;;;;7.9;69.5;102440.00000000001;;;;
2021/03/17 15:12:38;;;;;;;1.8;1.7;;;;;;;7.7;70.7;102440.00000000001;;;;
2021/03/17 15:14:38;;;;;;;1.8;1.7;;;;;;;7.8;70.5;102459.99999999999;;;;
2021/03/17 15:16:39;;;;;;;1.8;1.7;;;;;;;7.5;71.7;102459.99999999999;;;;
2021/03/17 15:18:37;;;;;;;1.8;1.7;;;;;;;7.0;72.4;102470.0;;;;
2021/03/17 15:20:38;;;;;;;1.8;1.7;;;;;;;6.9;74.6;102470.0;;;;
2021/03/17 15:22:37;;;;;;;2.4;2.1;;;;;;;6.6;75.1;102470.0;;;;
2021/03/17 15:24:38;;;;;;;2.4;2.1;;;;;;;6.7;75.2;102470.0;;;;
2021/03/17 15:26:38;;;;;;;2.4;2.1;;;;;;;6.6;74.7;102470.0;;;;
2021/03/17 15:28:37;;;;;;;2.4;2.1;;;;;;;6.5;74.5;102470.0;;;;
2021/03/17 15:30:38;;;;;;;2.4;2.1;;;;;;;6.3;74.9;102470.0;;;;
2021/03/17 15:32:38;;;;;;;2.4;2.1;;;;;;;6.5;75.5;102480.0;;;;
2021/03/17 15:34:37;;;;;;;2.4;2.1;;;;;;;6.4;74.3;102470.0;;;;
2021/03/17 15:36:37;;;;;;;2.4;2.1;;;;;;;6.5;74.3;102470.0;;;;
2021/03/17 15:38:37;;;;;;;2.4;2.1;;;;;;;6.6;74.5;102480.0;;;;
2021/03/17 15:40:37;;;;;;;2.4;2.1;;;;;;;6.5;74.1;102470.0;;;;
2021/03/17 15:42:38;;;;;;;2.2;2.1;;;;;;;6.6;74.1;102470.0;;;;
2021/03/17 15:44:38;;;;;;;2.2;2.1;;;;;;;6.8;74.8;102470.0;;;;
2021/03/17 15:46:37;;;;;;;2.2;2.1;;;;;;;6.9;74.5;102470.0;;;;
2021/03/17 15:48:37;;;;;;;2.2;2.1;;;;;;;6.6;74.2;102480.0;;;;
2021/03/17 15:50:39;;;;;;;2.2;2.1;;;;;;;6.9;74.5;102480.0;;;;
2021/03/17 15:52:38;;;;;;;2.2;2.1;;;;;;;7.1;74.7;102480.0;;;;
2021/03/17 16:00:39;;;;;;;3.0;2.5;;;;;;;7.2;74.4;102490.00000000001;;;;
2021/03/17 16:02:38;;;;;;;3.0;2.5;;;;;;;7.1;73.8;102490.00000000001;;;;
2021/03/17 16:04:37;;;;;;;3.0;2.5;;;;;;;7.2;74.0;102490.00000000001;;;;
2021/03/17 16:06:37;;;;;;;3.0;2.5;;;;;;;7.3;74.3;102490.00000000001;;;;
2021/03/17 16:08:37;;;;;;;3.0;2.5;;;;;;;7.1;74.0;102490.00000000001;;;;
2021/03/17 16:10:37;;;;;;;3.0;2.5;;;;;;;7.0;74.2;102490.00000000001;;;;
2021/03/17 16:12:38;;;;;;;3.0;2.5;;;;;;;7.2;74.5;102490.00000000001;;;;
2021/03/17 16:16:37;;;;;;;3.0;2.5;;;;;;;7.3;73.9;102490.00000000001;;;;
2021/03/17 16:18:37;;;;;;;3.0;2.5;;;;;;;7.0;74.4;102490.00000000001;;;;
2021/03/17 16:20:38;;;;;;;2.5;2.2;;;;;;;7.2;74.2;102490.00000000001;;;;
2021/03/17 16:26:37;;;;;;;2.5;2.2;;;;;;;7.3;73.4;102480.0;;;;
2021/03/17 16:28:38;;;;;;;2.5;2.2;;;;;;;7.2;74.0;102490.00000000001;;;;
2021/03/17 16:30:39;;;;;;;2.5;2.2;;;;;;;7.3;73.7;102490.00000000001;;;;
2021/03/17 16:34:38;;;;;;;2.5;2.2;;;;;;;7.0;73.6;102500.0;;;;
2021/03/17 16:36:38;;;;;;;2.5;2.2;;;;;;;6.9;74.1;102490.00000000001;;;;
2021/03/17 16:38:37;;;;;;;2.5;2.2;;;;;;;6.8;74.5;102490.00000000001;;;;
2021/03/17 16:46:38;;;;;;;1.9;1.8;;;;;;;6.9;72.7;102509.99999999999;;;;
2021/03/17 16:50:38;;;;;;;1.9;1.8;;;;;;;6.7;73.7;102509.99999999999;;;;
2021/03/17 16:52:38;;;;;;;1.9;1.8;;;;;;;6.8;73.6;102509.99999999999;;;;
2021/03/17 16:54:38;;;;;;;1.9;1.8;;;;;;;6.9;74.1;102509.99999999999;;;;
2021/03/17 16:56:37;;;;;;;1.9;1.8;;;;;;;6.8;73.2;102509.99999999999;;;;
2021/03/17 16:58:37;;;;;;;1.9;1.8;;;;;;;6.7;72.9;102509.99999999999;;;;
2021/03/17 17:00:37;;;;;;;2.3;2.1;;;;;;;6.8;73.4;102520.0;;;;
2021/03/17 17:02:37;;;;;;;2.3;2.1;;;;;;;6.7;73.5;102520.0;;;;
2021/03/17 17:04:38;;;;;;;2.3;2.1;;;;;;;6.9;73.1;102520.0;;;;
2021/03/17 17:06:38;;;;;;;2.3;2.1;;;;;;;6.6;73.1;102520.0;;;;
2021/03/17 17:08:37;;;;;;;2.3;2.1;;;;;;;6.7;72.9;102520.0;;;;
2021/03/17 17:10:37;;;;;;;2.3;2.1;;;;;;;6.6;73.5;102530.0;;;;
2021/03/17 17:14:37;;;;;;;2.3;2.1;;;;;;;6.8;73.3;102520.0;;;;
2021/03/17 17:20:38;;;;;;;2.9;2.2;;;;;;;6.7;73.8;102530.0;;;;
2021/03/17 17:22:39;;;;;;;2.9;2.2;;;;;;;6.8;73.1;102530.0;;;;
2021/03/17 17:24:37;;;;;;;2.9;2.2;;;;;;;6.6;73.5;102530.0;;;;
2021/03/17 17:26:38;;;;;;;2.9;2.2;;;;;;;6.7;72.9;102540.00000000001;;;;
2021/03/17 17:28:37;;;;;;;2.9;2.2;;;;;;;6.8;74.4;102540.00000000001;;;;
2021/03/17 17:32:38;;;;;;;2.9;2.2;;;;;;;6.7;73.3;102550.0;;;;
2021/03/17 17:34:38;;;;;;;2.9;2.2;;;;;;;6.6;74.0;102550.0;;;;
2021/03/17 17:36:37;;;;;;;2.9;2.2;;;;;;;6.4;74.5;102559.99999999999;;;;
2021/03/17 17:38:38;;;;;;;2.9;2.2;;;;;;;6.2;74.2;102559.99999999999;;;;
2021/03/17 17:40:40;;;;;;;2.5;2.3;;;;;;;6.5;73.8;102559.99999999999;;;;
2021/03/17 17:48:37;;;;;;;2.5;2.3;;;;;;;6.4;74.3;102530.0;;;;
2021/03/17 17:50:39;;;;;;;2.5;2.3;;;;;;;6.5;73.7;102530.0;;;;
2021/03/17 17:52:37;;;;;;;2.5;2.3;;;;;;;6.4;73.8;102530.0;;;;
2021/03/17 17:54:37;;;;;;;2.5;2.3;;;;;;;6.2;74.1;102520.0;;;;
2021/03/17 17:56:37;;;;;;;2.5;2.3;;;;;;;6.1;74.0;102509.99999999999;;;;
2021/03/17 18:00:38;;;;;;;2.8;2.3;;;;;;;6.2;74.0;102509.99999999999;;;;
2021/03/17 18:02:38;;;;;;;2.8;2.3;;;;;;;5.9;74.0;102500.0;;;;
2021/03/17 18:04:38;;;;;;;2.8;2.3;;;;;;;6.1;74.4;102490.00000000001;;;;
2021/03/17 18:06:38;;;;;;;2.8;2.3;;;;;;;6.2;73.8;102480.0;;;;
2021/03/17 18:12:38;;;;;;;2.8;2.3;;;;;;;6.0;74.0;102490.00000000001;;;;
2021/03/17 18:14:37;;;;;;;2.8;2.3;;;;;;;5.9;74.1;102480.0;;;;
2021/03/17 18:16:37;;;;;;;2.8;2.3;;;;;;;6.0;74.3;102490.00000000001;;;;
2021/03/17 18:18:38;;;;;;;2.8;2.3;;;;;;;5.9;74.6;102500.0;;;;
2021/03/17 18:20:38;;;;;;;4.5;3.2;;;;;;;6.0;74.1;102509.99999999999;;;;
2021/03/17 18:22:38;;;;;;;4.5;3.2;;;;;;;6.1;74.8;102509.99999999999;;;;
2021/03/17 18:24:38;;;;;;;4.5;3.2;;;;;;;6.0;74.6;102520.0;;;;
2021/03/17 18:26:38;;;;;;;4.5;3.2;;;;;;;5.9;74.8;102530.0;;;;
2021/03/17 18:30:38;;;;;;;4.5;3.2;;;;;;;5.8;74.7;102540.00000000001;;;;
2021/03/17 18:34:37;;;;;;;4.5;3.2;;;;;;;5.9;74.9;102540.00000000001;;;;
2021/03/17 18:36:38;;;;;;;4.5;3.2;;;;;;;6.1;74.1;102550.0;;;;